createdAt,value
2018-09-29T00:00:14.516Z,0
2018-09-29T00:01:24.010Z,0
2018-09-29T00:02:33.771Z,0
2018-09-29T00:03:43.798Z,0
2018-09-29T00:04:53.122Z,0
2018-09-29T00:06:02.986Z,0
2018-09-29T00:07:12.474Z,0
2018-09-29T00:08:22.247Z,0
2018-09-29T00:09:32.015Z,0
2018-09-29T00:10:41.508Z,0
2018-09-29T00:11:51.265Z,0
2018-09-29T00:13:01.030Z,0
2018-09-29T00:14:10.807Z,0
2018-09-29T00:15:20.572Z,0
2018-09-29T00:16:30.753Z,0
2018-09-29T00:17:40.574Z,0
2018-09-29T00:18:50.068Z,0
2018-09-29T00:19:59.561Z,0
2018-09-29T00:21:09.051Z,0
2018-09-29T00:22:18.540Z,0
2018-09-29T00:23:28.355Z,0
2018-09-29T00:24:38.118Z,0
2018-09-29T00:25:48.147Z,0
2018-09-29T00:26:58.177Z,0
2018-09-29T00:28:08.214Z,0
2018-09-29T00:29:18.291Z,0
2018-09-29T00:30:27.780Z,0
2018-09-29T00:31:37.814Z,0
2018-09-29T00:32:47.574Z,0
2018-09-29T00:33:57.606Z,0
2018-09-29T00:35:07.424Z,0
2018-09-29T00:36:17.184Z,0
2018-09-29T00:37:27.210Z,0
2018-09-29T00:38:37.238Z,0
2018-09-29T00:39:47.000Z,0
2018-09-29T00:40:56.767Z,0
2018-09-29T00:42:06.526Z,0
2018-09-29T00:43:16.558Z,0
2018-09-29T00:44:26.048Z,0
2018-09-29T00:45:36.079Z,0
2018-09-29T00:46:46.162Z,0
2018-09-29T00:47:56.198Z,0
2018-09-29T00:49:05.960Z,0
2018-09-29T00:50:15.184Z,0
2018-09-29T00:51:24.939Z,0
2018-09-29T00:52:35.017Z,0
2018-09-29T00:53:44.775Z,0
2018-09-29T00:54:54.807Z,0
2018-09-29T00:56:04.844Z,0
2018-09-29T00:57:14.610Z,0
2018-09-29T00:58:24.643Z,0
2018-09-29T00:59:34.403Z,0
2018-09-29T01:00:44.437Z,0
2018-09-29T01:01:54.200Z,0
2018-09-29T01:03:04.228Z,0
2018-09-29T01:04:14.037Z,0
2018-09-29T01:05:24.070Z,0
2018-09-29T01:06:34.105Z,0
2018-09-29T01:07:44.133Z,0
2018-09-29T01:08:53.624Z,0
2018-09-29T01:10:03.700Z,0
2018-09-29T01:11:13.456Z,0
2018-09-29T01:12:23.218Z,0
2018-09-29T01:13:33.250Z,0
2018-09-29T01:14:43.017Z,0
2018-09-29T01:15:52.825Z,0
2018-09-29T01:17:02.325Z,0
2018-09-29T01:18:12.088Z,0
2018-09-29T01:19:22.122Z,0
2018-09-29T01:20:31.884Z,0
2018-09-29T01:21:41.371Z,0
2018-09-29T01:22:51.129Z,0
2018-09-29T01:24:00.901Z,0
2018-09-29T01:25:10.660Z,0
2018-09-29T01:26:20.425Z,0
2018-09-29T01:27:29.917Z,0
2018-09-29T01:28:39.409Z,0
2018-09-29T01:29:49.488Z,0
2018-09-29T01:30:59.520Z,0
2018-09-29T01:32:09.027Z,0
2018-09-29T01:33:19.060Z,0
2018-09-29T01:34:28.820Z,0
2018-09-29T01:35:38.581Z,0
2018-09-29T01:36:48.354Z,0
2018-09-29T01:37:58.116Z,0
2018-09-29T01:39:08.141Z,0
2018-09-29T01:40:18.169Z,0
2018-09-29T01:41:28.190Z,0
2018-09-29T01:42:38.216Z,0
2018-09-29T01:43:48.243Z,0
2018-09-29T01:44:58.058Z,0
2018-09-29T01:46:07.813Z,0
2018-09-29T01:47:17.834Z,0
2018-09-29T01:48:27.593Z,0
2018-09-29T01:49:37.619Z,0
2018-09-29T01:50:47.424Z,0
2018-09-29T01:51:57.461Z,0
2018-09-29T01:53:07.487Z,0
2018-09-29T01:54:17.245Z,0
2018-09-29T01:55:26.467Z,0
2018-09-29T01:56:36.066Z,0
2018-09-29T01:57:46.094Z,0
2018-09-29T01:58:56.127Z,0
2018-09-29T02:00:06.165Z,0
2018-09-29T02:01:15.928Z,0
2018-09-29T02:02:25.970Z,0
2018-09-29T02:03:36.000Z,0
2018-09-29T02:04:45.493Z,0
2018-09-29T02:05:55.249Z,0
2018-09-29T02:07:04.740Z,0
2018-09-29T02:08:14.967Z,0
2018-09-29T02:09:24.459Z,0
2018-09-29T02:10:34.226Z,0
2018-09-29T02:11:44.267Z,0
2018-09-29T02:12:54.043Z,0
2018-09-29T02:14:03.849Z,0
2018-09-29T02:15:13.624Z,0
2018-09-29T02:16:23.426Z,0
2018-09-29T02:17:32.916Z,0
2018-09-29T02:18:42.678Z,0
2018-09-29T02:19:52.441Z,0
2018-09-29T02:21:02.465Z,0
2018-09-29T02:22:12.225Z,0
2018-09-29T02:23:21.979Z,0
2018-09-29T02:24:31.483Z,0
2018-09-29T02:25:41.571Z,0
2018-09-29T02:26:51.063Z,0
2018-09-29T02:28:01.104Z,0
2018-09-29T02:29:11.032Z,0
2018-09-29T02:30:20.813Z,0
2018-09-29T02:31:31.400Z,0
2018-09-29T02:32:41.232Z,0
2018-09-29T02:33:50.991Z,0
2018-09-29T02:35:00.764Z,0
2018-09-29T02:36:10.000Z,0
2018-09-29T02:37:20.087Z,0
2018-09-29T02:38:30.125Z,0
2018-09-29T02:39:39.887Z,0
2018-09-29T02:40:49.654Z,0
2018-09-29T02:41:59.413Z,0
2018-09-29T02:43:09.245Z,0
2018-09-29T02:44:18.747Z,0
2018-09-29T02:45:28.799Z,0
2018-09-29T02:46:38.823Z,0
2018-09-29T02:47:48.853Z,0
2018-09-29T02:48:58.955Z,0
2018-09-29T02:50:08.458Z,0
2018-09-29T02:51:18.237Z,0
2018-09-29T02:52:28.025Z,0
2018-09-29T02:53:37.528Z,0
2018-09-29T02:54:47.562Z,0
2018-09-29T02:55:57.599Z,0
2018-09-29T02:57:07.640Z,0
2018-09-29T02:58:17.138Z,0
2018-09-29T02:59:26.378Z,0
2018-09-29T03:00:36.461Z,0
2018-09-29T03:01:46.234Z,0
2018-09-29T03:02:56.270Z,0
2018-09-29T03:04:06.319Z,0
2018-09-29T03:05:16.094Z,0
2018-09-29T03:06:25.855Z,0
2018-09-29T03:07:35.621Z,0
2018-09-29T03:08:45.657Z,0
2018-09-29T03:09:55.693Z,0
2018-09-29T03:11:05.508Z,0
2018-09-29T03:12:15.281Z,0
2018-09-29T03:13:25.050Z,0
2018-09-29T03:14:34.834Z,0
2018-09-29T03:15:44.884Z,0
2018-09-29T03:16:54.102Z,0
2018-09-29T03:18:03.863Z,0
2018-09-29T03:19:13.492Z,0
2018-09-29T03:20:23.624Z,0
2018-09-29T03:21:33.392Z,0
2018-09-29T03:22:43.436Z,0
2018-09-29T03:23:53.573Z,0
2018-09-29T03:25:03.331Z,0
2018-09-29T03:26:13.365Z,0
2018-09-29T03:27:23.396Z,0
2018-09-29T03:28:33.162Z,0
2018-09-29T03:29:42.981Z,0
2018-09-29T03:30:52.802Z,0
2018-09-29T03:32:03.292Z,0
2018-09-29T03:33:13.060Z,0
2018-09-29T03:34:23.107Z,0
2018-09-29T03:35:33.139Z,0
2018-09-29T03:36:42.648Z,0
2018-09-29T03:37:52.684Z,0
2018-09-29T03:39:01.909Z,0
2018-09-29T03:40:11.941Z,0
2018-09-29T03:41:21.705Z,0
2018-09-29T03:42:31.466Z,0
2018-09-29T03:43:41.495Z,0
2018-09-29T03:44:51.278Z,0
2018-09-29T03:46:01.323Z,0
2018-09-29T03:47:10.819Z,0
2018-09-29T03:48:20.862Z,0
2018-09-29T03:49:30.898Z,0
2018-09-29T03:50:40.660Z,0
2018-09-29T03:51:50.151Z,0
2018-09-29T03:52:59.656Z,0
2018-09-29T03:54:09.719Z,0
2018-09-29T03:55:19.751Z,0
2018-09-29T03:56:29.786Z,0
2018-09-29T03:57:39.848Z,0
2018-09-29T03:58:49.620Z,0
2018-09-29T03:59:59.702Z,0
2018-09-29T04:01:09.470Z,0
2018-09-29T04:02:19.506Z,0
2018-09-29T04:03:29.546Z,0
2018-09-29T04:04:39.326Z,0
2018-09-29T04:05:49.359Z,0
2018-09-29T04:06:58.862Z,0
2018-09-29T04:08:08.631Z,0
2018-09-29T04:09:18.674Z,0
2018-09-29T04:10:28.764Z,0
2018-09-29T04:11:38.807Z,0
2018-09-29T04:12:48.570Z,0
2018-09-29T04:13:58.597Z,0
2018-09-29T04:15:08.664Z,0
2018-09-29T04:16:18.698Z,0
2018-09-29T04:17:28.742Z,0
2018-09-29T04:18:38.499Z,0
2018-09-29T04:19:48.527Z,0
2018-09-29T04:20:58.291Z,0
2018-09-29T04:22:07.836Z,0
2018-09-29T04:23:17.866Z,0
2018-09-29T04:24:27.634Z,0
2018-09-29T04:25:37.127Z,0
2018-09-29T04:26:47.155Z,0
2018-09-29T04:27:57.231Z,0
2018-09-29T04:29:06.992Z,0
2018-09-29T04:30:17.028Z,0
2018-09-29T04:31:27.065Z,0
2018-09-29T04:32:37.120Z,0
2018-09-29T04:33:47.148Z,0
2018-09-29T04:34:57.177Z,0
2018-09-29T04:36:07.198Z,0
2018-09-29T04:37:17.229Z,0
2018-09-29T04:38:26.994Z,0
2018-09-29T04:39:36.533Z,0
2018-09-29T04:40:46.324Z,0
2018-09-29T04:41:55.816Z,0
2018-09-29T04:43:05.777Z,0
2018-09-29T04:44:15.912Z,0
2018-09-29T04:45:25.996Z,0
2018-09-29T04:46:36.036Z,0
2018-09-29T04:47:46.069Z,0
2018-09-29T04:48:55.833Z,4
2018-09-29T04:50:05.337Z,4
2018-09-29T04:51:15.423Z,0
2018-09-29T04:52:25.184Z,0
2018-09-29T04:53:35.207Z,4
2018-09-29T04:54:44.974Z,4
2018-09-29T04:55:54.736Z,4
2018-09-29T04:57:04.550Z,8
2018-09-29T04:58:14.316Z,8
2018-09-29T04:59:23.815Z,8
2018-09-29T05:00:33.845Z,12
2018-09-29T05:01:43.619Z,8
2018-09-29T05:02:53.654Z,12
2018-09-29T05:04:03.161Z,12
2018-09-29T05:05:12.921Z,12
2018-09-29T05:06:23.064Z,16
2018-09-29T05:07:32.575Z,16
2018-09-29T05:08:42.065Z,16
2018-09-29T05:09:52.098Z,20
2018-09-29T05:11:02.130Z,20
2018-09-29T05:12:11.890Z,20
2018-09-29T05:13:21.653Z,24
2018-09-29T05:14:31.680Z,28
2018-09-29T05:15:41.715Z,28
2018-09-29T05:16:51.768Z,32
2018-09-29T05:18:01.794Z,32
2018-09-29T05:19:11.027Z,36
2018-09-29T05:20:21.059Z,44
2018-09-29T05:21:30.821Z,48
2018-09-29T05:22:40.588Z,56
2018-09-29T05:23:50.351Z,64
2018-09-29T05:24:59.843Z,76
2018-09-29T05:26:09.974Z,80
2018-09-29T05:27:19.735Z,84
2018-09-29T05:28:29.769Z,84
2018-09-29T05:29:39.545Z,88
2018-09-29T05:30:49.171Z,96
2018-09-29T05:31:58.993Z,112
2018-09-29T05:33:08.485Z,132
2018-09-29T05:34:17.719Z,152
2018-09-29T05:35:27.219Z,176
2018-09-29T05:36:36.980Z,192
2018-09-29T05:37:46.778Z,196
2018-09-29T05:38:56.549Z,200
2018-09-29T05:40:06.318Z,204
2018-09-29T05:41:16.118Z,224
2018-09-29T05:42:26.150Z,260
2018-09-29T05:43:36.232Z,296
2018-09-29T05:44:45.991Z,312
2018-09-29T05:45:55.752Z,324
2018-09-29T05:47:05.775Z,344
2018-09-29T05:48:15.958Z,388
2018-09-29T05:49:26.034Z,424
2018-09-29T05:50:35.530Z,456
2018-09-29T05:51:45.290Z,468
2018-09-29T05:52:55.328Z,480
2018-09-29T05:54:05.367Z,500
2018-09-29T05:55:15.446Z,508
2018-09-29T05:56:25.205Z,512
2018-09-29T05:57:35.246Z,528
2018-09-29T05:58:45.319Z,548
2018-09-29T05:59:54.824Z,572
2018-09-29T06:01:04.638Z,608
2018-09-29T06:02:13.867Z,664
2018-09-29T06:03:23.636Z,716
2018-09-29T06:04:33.662Z,768
2018-09-29T06:05:44.207Z,800
2018-09-29T06:06:53.841Z,816
2018-09-29T06:08:03.611Z,836
2018-09-29T06:09:13.642Z,840
2018-09-29T06:10:23.679Z,852
2018-09-29T06:11:33.184Z,884
2018-09-29T06:12:43.223Z,928
2018-09-29T06:13:52.997Z,988
2018-09-29T06:15:02.219Z,1040
2018-09-29T06:16:11.988Z,1092
2018-09-29T06:17:22.018Z,1156
2018-09-29T06:18:31.782Z,1240
2018-09-29T06:19:41.275Z,1364
2018-09-29T06:20:51.125Z,1520
2018-09-29T06:22:01.036Z,1704
2018-09-29T06:23:10.263Z,1884
2018-09-29T06:24:20.082Z,2012
2018-09-29T06:25:29.853Z,2048
2018-09-29T06:26:39.625Z,2032
2018-09-29T06:27:49.447Z,2020
2018-09-29T06:28:59.597Z,2012
2018-09-29T06:30:09.420Z,2004
2018-09-29T06:31:19.452Z,2016
2018-09-29T06:32:29.477Z,2036
2018-09-29T06:33:39.246Z,2040
2018-09-29T06:34:49.016Z,2032
2018-09-29T06:35:59.052Z,2044
2018-09-29T06:37:08.814Z,2048
2018-09-29T06:38:19.010Z,2056
2018-09-29T06:39:28.510Z,2068
2018-09-29T06:40:44.691Z,2064
2018-09-29T06:41:54.459Z,2020
2018-09-29T06:43:04.478Z,1972
2018-09-29T06:44:14.314Z,1932
2018-09-29T06:45:24.351Z,1928
2018-09-29T06:46:34.385Z,1988
2018-09-29T06:47:44.714Z,2072
2018-09-29T06:48:54.285Z,2108
2018-09-29T06:50:04.049Z,2060
2018-09-29T06:51:13.811Z,1976
2018-09-29T06:52:23.569Z,1916
2018-09-29T06:53:33.597Z,1848
2018-09-29T06:54:43.920Z,1844
2018-09-29T06:55:53.684Z,1892
2018-09-29T06:57:03.722Z,1972
2018-09-29T06:58:13.486Z,2044
2018-09-29T06:59:23.569Z,2052
2018-09-29T07:00:33.335Z,1992
2018-09-29T07:01:43.138Z,1932
2018-09-29T07:02:52.972Z,1948
2018-09-29T07:04:02.745Z,2008
2018-09-29T07:05:12.780Z,2096
2018-09-29T07:06:22.822Z,2168
2018-09-29T07:07:32.322Z,2216
2018-09-29T07:08:42.406Z,2300
2018-09-29T07:09:52.434Z,2380
2018-09-29T07:11:03.923Z,2544
2018-09-29T07:12:13.425Z,2716
2018-09-29T07:13:23.458Z,2744
2018-09-29T07:14:33.492Z,2668
2018-09-29T07:15:43.263Z,2608
2018-09-29T07:16:53.078Z,2460
2018-09-29T07:18:02.573Z,2372
2018-09-29T07:19:12.341Z,2288
2018-09-29T07:20:22.104Z,2132
2018-09-29T07:21:32.317Z,1932
2018-09-29T07:22:41.817Z,1764
2018-09-29T07:23:51.311Z,1756
2018-09-29T07:25:00.534Z,1748
2018-09-29T07:26:10.583Z,1772
2018-09-29T07:27:20.617Z,1840
2018-09-29T07:28:30.713Z,2000
2018-09-29T07:29:40.748Z,2240
2018-09-29T07:30:50.777Z,2452
2018-09-29T07:32:00.548Z,2648
2018-09-29T07:33:10.581Z,2708
2018-09-29T07:34:20.395Z,2816
2018-09-29T07:35:29.884Z,2932
2018-09-29T07:36:39.377Z,3156
2018-09-29T07:37:49.149Z,3408
2018-09-29T07:38:59.243Z,3732
2018-09-29T07:40:09.125Z,3984
2018-09-29T07:41:18.631Z,4176
2018-09-29T07:42:28.664Z,4180
2018-09-29T07:43:38.156Z,4280
2018-09-29T07:44:47.920Z,4404
2018-09-29T07:45:57.738Z,4528
2018-09-29T07:47:07.773Z,4596
2018-09-29T07:48:17.799Z,4616
2018-09-29T07:49:28.020Z,4588
2018-09-29T07:50:38.069Z,4472
2018-09-29T07:51:48.156Z,4368
2018-09-29T07:52:57.382Z,4160
2018-09-29T07:54:07.146Z,4008
2018-09-29T07:55:16.905Z,3920
2018-09-29T07:56:26.675Z,3744
2018-09-29T07:57:36.756Z,3484
2018-09-29T07:58:46.249Z,3320
2018-09-29T07:59:56.299Z,3208
2018-09-29T08:01:05.798Z,3212
2018-09-29T08:02:15.834Z,3328
2018-09-29T08:03:25.881Z,3524
2018-09-29T08:04:35.915Z,3796
2018-09-29T08:05:45.943Z,3912
2018-09-29T08:06:55.708Z,3984
2018-09-29T08:08:05.204Z,4004
2018-09-29T08:09:15.282Z,3992
2018-09-29T08:10:25.310Z,3860
2018-09-29T08:11:35.343Z,3696
2018-09-29T08:12:45.375Z,3448
2018-09-29T08:13:55.142Z,3480
2018-09-29T08:15:04.956Z,3580
2018-09-29T08:16:14.768Z,3656
2018-09-29T08:17:24.794Z,3656
2018-09-29T08:18:34.820Z,3580
2018-09-29T08:19:44.865Z,3476
2018-09-29T08:20:54.677Z,3320
2018-09-29T08:22:04.448Z,3136
2018-09-29T08:23:14.212Z,2916
2018-09-29T08:24:23.891Z,2708
2018-09-29T08:25:33.472Z,2572
2018-09-29T08:26:43.290Z,2480
2018-09-29T08:27:53.047Z,2476
2018-09-29T08:29:02.814Z,2480
2018-09-29T08:30:12.849Z,2296
2018-09-29T08:31:22.890Z,2196
2018-09-29T08:32:33.218Z,2224
2018-09-29T08:33:43.251Z,2192
2018-09-29T08:34:53.281Z,2060
2018-09-29T08:36:03.305Z,1968
2018-09-29T08:37:13.080Z,1896
2018-09-29T08:38:22.581Z,1860
2018-09-29T08:39:32.618Z,1864
2018-09-29T08:40:42.113Z,1752
2018-09-29T08:41:51.872Z,1692
2018-09-29T08:43:01.915Z,1692
2018-09-29T08:44:12.031Z,1708
2018-09-29T08:45:22.092Z,1736
2018-09-29T08:46:31.878Z,1796
2018-09-29T08:47:41.682Z,1924
2018-09-29T08:48:51.723Z,2100
2018-09-29T08:50:01.749Z,2240
2018-09-29T08:51:11.511Z,2296
2018-09-29T08:52:21.545Z,2252
2018-09-29T08:53:31.546Z,2184
2018-09-29T08:54:41.366Z,2204
2018-09-29T08:55:51.396Z,2292
2018-09-29T08:57:01.423Z,2264
2018-09-29T08:58:11.194Z,2120
2018-09-29T08:59:20.959Z,2036
2018-09-29T09:00:30.460Z,2032
2018-09-29T09:01:40.223Z,2112
2018-09-29T09:02:50.255Z,2244
2018-09-29T09:04:00.567Z,2340
2018-09-29T09:05:10.118Z,2484
2018-09-29T09:06:19.884Z,2608
2018-09-29T09:07:29.649Z,2656
2018-09-29T09:08:39.681Z,2812
2018-09-29T09:09:49.184Z,2940
2018-09-29T09:10:58.980Z,3096
2018-09-29T09:12:09.016Z,3024
2018-09-29T09:13:19.097Z,2832
2018-09-29T09:14:28.857Z,2516
2018-09-29T09:15:38.614Z,2356
2018-09-29T09:16:48.434Z,2420
2018-09-29T09:17:58.574Z,2520
2018-09-29T09:19:08.082Z,2516
2018-09-29T09:20:18.127Z,2420
2018-09-29T09:21:27.890Z,2292
2018-09-29T09:22:37.658Z,2388
2018-09-29T09:23:47.643Z,2500
2018-09-29T09:24:57.764Z,2604
2018-09-29T09:26:07.802Z,2704
2018-09-29T09:27:17.577Z,2700
2018-09-29T09:28:27.667Z,2736
2018-09-29T09:29:37.695Z,2864
2018-09-29T09:30:47.546Z,3272
2018-09-29T09:31:57.313Z,3556
2018-09-29T09:33:07.363Z,3612
2018-09-29T09:34:17.138Z,3556
2018-09-29T09:35:26.901Z,3724
2018-09-29T09:36:36.662Z,3708
2018-09-29T09:37:46.154Z,3428
2018-09-29T09:38:55.915Z,3016
2018-09-29T09:40:05.957Z,2792
2018-09-29T09:41:15.716Z,2836
2018-09-29T09:42:25.480Z,3048
2018-09-29T09:43:35.796Z,3128
2018-09-29T09:44:46.031Z,3116
2018-09-29T09:45:56.063Z,3112
2018-09-29T09:47:06.098Z,3032
2018-09-29T09:48:15.595Z,3000
2018-09-29T09:49:25.446Z,3204
2018-09-29T09:50:35.318Z,3572
2018-09-29T09:51:44.823Z,3976
2018-09-29T09:52:54.854Z,4304
2018-09-29T09:54:04.618Z,4648
2018-09-29T09:55:14.114Z,5044
2018-09-29T09:56:23.888Z,5560
2018-09-29T09:57:33.383Z,6188
2018-09-29T09:58:43.144Z,6704
2018-09-29T09:59:52.641Z,6908
2018-09-29T10:01:02.403Z,7120
2018-09-29T10:02:11.900Z,7048
2018-09-29T10:03:21.932Z,6872
2018-09-29T10:04:31.694Z,6564
2018-09-29T10:05:41.240Z,5984
2018-09-29T10:06:50.477Z,5236
2018-09-29T10:08:00.527Z,4560
2018-09-29T10:09:10.291Z,4136
2018-09-29T10:10:19.787Z,3912
2018-09-29T10:11:29.824Z,3844
2018-09-29T10:12:39.854Z,3812
2018-09-29T10:13:49.617Z,3976
2018-09-29T10:14:59.110Z,4760
2018-09-29T10:16:08.875Z,5664
2018-09-29T10:17:19.029Z,6324
2018-09-29T10:18:29.111Z,6676
2018-09-29T10:19:39.136Z,6804
2018-09-29T10:20:49.167Z,7412
2018-09-29T10:21:59.198Z,7620
2018-09-29T10:23:08.974Z,7528
2018-09-29T10:24:18.468Z,7612
2018-09-29T10:25:28.496Z,7896
2018-09-29T10:26:38.528Z,8116
2018-09-29T10:27:48.539Z,8088
2018-09-29T10:28:58.354Z,8004
2018-09-29T10:30:07.851Z,7968
2018-09-29T10:31:17.345Z,7288
2018-09-29T10:32:26.837Z,6636
2018-09-29T10:33:36.637Z,6428
2018-09-29T10:34:46.193Z,6612
2018-09-29T10:35:55.958Z,6916
2018-09-29T10:37:05.993Z,7236
2018-09-29T10:38:16.034Z,6916
2018-09-29T10:39:25.800Z,6880
2018-09-29T10:40:35.833Z,6548
2018-09-29T10:41:45.062Z,6120
2018-09-29T10:42:55.100Z,5816
2018-09-29T10:44:04.995Z,5692
2018-09-29T10:45:14.833Z,5616
2018-09-29T10:46:24.885Z,5444
2018-09-29T10:47:34.919Z,5376
2018-09-29T10:48:44.463Z,5240
2018-09-29T10:49:54.500Z,5340
2018-09-29T10:51:04.319Z,5864
2018-09-29T10:52:14.089Z,6732
2018-09-29T10:53:24.125Z,7340
2018-09-29T10:54:34.154Z,8208
2018-09-29T10:55:44.187Z,8688
2018-09-29T10:56:54.223Z,8776
2018-09-29T10:58:03.773Z,8744
2018-09-29T10:59:13.923Z,9116
2018-09-29T11:00:24.165Z,9696
2018-09-29T11:01:33.932Z,10188
2018-09-29T11:02:44.090Z,10468
2018-09-29T11:03:53.932Z,10112
2018-09-29T11:05:04.305Z,9800
2018-09-29T11:06:13.444Z,9652
2018-09-29T11:07:23.481Z,9700
2018-09-29T11:08:33.532Z,9796
2018-09-29T11:09:43.307Z,10024
2018-09-29T11:10:52.533Z,10188
2018-09-29T11:12:02.564Z,10684
2018-09-29T11:13:12.595Z,11132
2018-09-29T11:14:22.846Z,11700
2018-09-29T11:15:32.513Z,12208
2018-09-29T11:16:42.273Z,12952
2018-09-29T11:17:52.310Z,13172
2018-09-29T11:19:02.077Z,13668
2018-09-29T11:20:12.126Z,13372
2018-09-29T11:21:21.945Z,13512
2018-09-29T11:22:31.710Z,12368
2018-09-29T11:23:41.746Z,12004
2018-09-29T11:24:51.511Z,13176
2018-09-29T11:26:01.545Z,13820
2018-09-29T11:27:11.573Z,13996
2018-09-29T11:28:21.590Z,15400
2018-09-29T11:29:31.769Z,18144
2018-09-29T11:30:41.806Z,17888
2018-09-29T11:31:51.840Z,15756
2018-09-29T11:33:03.608Z,18752
2018-09-29T11:34:13.650Z,15120
2018-09-29T11:35:23.687Z,16512
2018-09-29T11:36:33.716Z,23776
2018-09-29T11:37:43.749Z,37632
2018-09-29T11:38:53.545Z,37056
2018-09-29T11:40:03.581Z,28384
2018-09-29T11:41:13.614Z,23104
2018-09-29T11:42:23.386Z,18656
2018-09-29T11:43:33.420Z,19584
2018-09-29T11:44:43.701Z,19360
2018-09-29T11:45:53.620Z,21792
2018-09-29T11:47:03.650Z,44800
2018-09-29T11:48:13.686Z,39968
2018-09-29T11:49:23.730Z,35744
2018-09-29T11:50:33.763Z,35136
2018-09-29T11:51:43.526Z,31232
2018-09-29T11:52:53.571Z,29472
2018-09-29T11:54:03.604Z,25312
2018-09-29T11:55:13.374Z,25312
2018-09-29T11:56:23.699Z,24736
2018-09-29T11:57:33.739Z,22592
2018-09-29T11:58:43.511Z,20160
2018-09-29T11:59:53.017Z,22848
2018-09-29T12:01:03.056Z,22368
2018-09-29T12:02:13.398Z,20512
2018-09-29T12:03:23.582Z,19520
2018-09-29T12:04:33.347Z,17024
2018-09-29T12:05:43.383Z,17248
2018-09-29T12:06:53.468Z,17568
2018-09-29T12:08:03.827Z,17280
2018-09-29T12:09:13.700Z,16736
2018-09-29T12:10:23.734Z,18016
2018-09-29T12:11:33.769Z,18784
2018-09-29T12:12:43.543Z,16864
2018-09-29T12:13:55.371Z,13352
2018-09-29T12:15:05.298Z,12716
2018-09-29T12:16:15.331Z,11940
2018-09-29T12:17:25.361Z,12244
2018-09-29T12:18:35.127Z,11816
2018-09-29T12:19:44.939Z,10960
2018-09-29T12:20:54.980Z,10752
2018-09-29T12:22:04.748Z,11584
2018-09-29T12:23:14.813Z,12360
2018-09-29T12:24:24.578Z,12132
2018-09-29T12:25:34.348Z,11644
2018-09-29T12:26:44.107Z,12020
2018-09-29T12:27:53.873Z,12560
2018-09-29T12:29:03.638Z,12980
2018-09-29T12:30:13.681Z,13524
2018-09-29T12:31:23.458Z,13976
2018-09-29T12:32:33.493Z,14392
2018-09-29T12:33:43.536Z,15572
2018-09-29T12:34:53.300Z,16188
2018-09-29T12:36:03.066Z,16020
2018-09-29T12:37:13.915Z,17824
2018-09-29T12:38:24.477Z,17440
2018-09-29T12:39:34.242Z,17920
2018-09-29T12:40:44.292Z,14908
2018-09-29T12:41:54.061Z,13476
2018-09-29T12:43:03.832Z,14120
2018-09-29T12:44:13.064Z,11876
2018-09-29T12:45:22.620Z,11936
2018-09-29T12:46:32.128Z,11228
2018-09-29T12:47:42.624Z,11084
2018-09-29T12:48:52.788Z,11044
2018-09-29T12:50:02.847Z,10836
2018-09-29T12:51:12.950Z,10420
2018-09-29T12:52:22.721Z,9932
2018-09-29T12:53:31.949Z,10004
2018-09-29T12:54:41.993Z,10036
2018-09-29T12:55:51.762Z,10540
2018-09-29T12:57:01.527Z,10740
2018-09-29T12:58:11.028Z,10660
2018-09-29T12:59:20.533Z,10412
2018-09-29T13:00:30.303Z,10348
2018-09-29T13:01:40.343Z,9644
2018-09-29T13:02:50.118Z,8400
2018-09-29T13:03:59.882Z,8108
2018-09-29T13:05:10.166Z,8472
2018-09-29T13:06:20.045Z,8928
2018-09-29T13:07:29.808Z,10164
2018-09-29T13:08:39.581Z,10816
2018-09-29T13:09:49.622Z,10408
2018-09-29T13:10:59.369Z,10336
2018-09-29T13:12:08.611Z,12164
2018-09-29T13:13:18.375Z,12968
2018-09-29T13:14:28.145Z,13024
2018-09-29T13:15:37.918Z,13024
2018-09-29T13:16:47.492Z,12948
2018-09-29T13:17:57.406Z,13020
2018-09-29T13:19:07.172Z,13680
2018-09-29T13:20:16.943Z,13876
2018-09-29T13:21:26.713Z,13464
2018-09-29T13:22:36.797Z,12948
2018-09-29T13:23:46.829Z,13208
2018-09-29T13:24:56.588Z,13192
2018-09-29T13:26:06.347Z,12408
2018-09-29T13:27:16.120Z,13528
2018-09-29T13:28:25.900Z,10744
2018-09-29T13:29:36.190Z,10552
2018-09-29T13:30:46.414Z,9100
2018-09-29T13:31:56.803Z,8716
2018-09-29T13:33:06.727Z,7684
2018-09-29T13:34:16.224Z,6632
2018-09-29T13:35:25.999Z,7732
2018-09-29T13:36:35.766Z,7332
2018-09-29T13:37:45.528Z,6116
2018-09-29T13:38:55.293Z,5472
2018-09-29T13:40:05.059Z,5532
2018-09-29T13:41:14.292Z,5436
2018-09-29T13:42:24.056Z,5136
2018-09-29T13:43:34.092Z,5020
2018-09-29T13:44:44.125Z,4924
2018-09-29T13:45:54.057Z,4788
2018-09-29T13:47:04.171Z,4480
2018-09-29T13:48:14.206Z,4412
2018-09-29T13:49:24.247Z,5016
2018-09-29T13:50:33.749Z,5080
2018-09-29T13:51:43.779Z,6352
2018-09-29T13:52:53.541Z,7812
2018-09-29T13:54:03.582Z,9032
2018-09-29T13:55:13.620Z,9368
2018-09-29T13:56:23.388Z,9172
2018-09-29T13:57:33.163Z,8864
2018-09-29T13:58:43.198Z,8692
2018-09-29T13:59:53.232Z,8308
2018-09-29T14:01:03.275Z,8524
2018-09-29T14:02:13.175Z,9020
2018-09-29T14:03:22.995Z,9444
2018-09-29T14:04:32.493Z,9828
2018-09-29T14:05:42.268Z,10440
2018-09-29T14:06:52.035Z,10296
2018-09-29T14:08:02.080Z,9688
2018-09-29T14:09:11.849Z,9336
2018-09-29T14:10:21.661Z,9160
2018-09-29T14:11:31.695Z,9412
2018-09-29T14:12:41.501Z,9576
2018-09-29T14:13:51.547Z,9236
2018-09-29T14:15:01.316Z,9416
2018-09-29T14:16:11.360Z,9756
2018-09-29T14:17:21.401Z,10188
2018-09-29T14:18:30.894Z,10096
2018-09-29T14:19:40.658Z,10060
2018-09-29T14:20:50.705Z,9580
2018-09-29T14:22:00.468Z,9328
2018-09-29T14:23:10.509Z,8916
2018-09-29T14:24:20.004Z,8612
2018-09-29T14:25:29.498Z,8640
2018-09-29T14:26:39.308Z,8548
2018-09-29T14:27:49.073Z,8460
2018-09-29T14:28:59.118Z,8072
2018-09-29T14:30:08.956Z,7372
2018-09-29T14:31:19.250Z,6872
2018-09-29T14:32:29.014Z,7576
2018-09-29T14:33:38.519Z,6736
2018-09-29T14:34:48.016Z,6740
2018-09-29T14:35:57.781Z,6696
2018-09-29T14:37:08.221Z,7276
2018-09-29T14:38:18.356Z,9700
2018-09-29T14:39:28.125Z,11716
2018-09-29T14:40:37.620Z,10960
2018-09-29T14:41:47.563Z,10168
2018-09-29T14:42:57.421Z,10896
2018-09-29T14:44:07.189Z,9704
2018-09-29T14:45:17.299Z,8984
2018-09-29T14:46:27.140Z,8840
2018-09-29T14:47:36.908Z,8064
2018-09-29T14:48:46.953Z,7456
2018-09-29T14:49:56.987Z,10784
2018-09-29T14:51:06.797Z,6576
2018-09-29T14:52:17.025Z,6780
2018-09-29T14:53:26.598Z,8076
2018-09-29T14:54:36.360Z,10936
2018-09-29T14:55:46.140Z,40352
2018-09-29T14:56:55.636Z,30880
2018-09-29T14:58:05.730Z,21120
2018-09-29T14:59:15.247Z,11712
2018-09-29T15:00:25.285Z,8348
2018-09-29T15:01:35.324Z,8920
2018-09-29T15:02:45.360Z,11260
2018-09-29T15:03:55.221Z,31712
2018-09-29T15:05:05.003Z,10764
2018-09-29T15:06:14.771Z,9768
2018-09-29T15:07:24.617Z,8584
2018-09-29T15:08:34.112Z,22784
2018-09-29T15:09:43.879Z,7904
2018-09-29T15:10:54.065Z,28352
2018-09-29T15:12:03.847Z,8680
2018-09-29T15:13:13.351Z,6384
2018-09-29T15:14:23.124Z,6632
2018-09-29T15:15:33.165Z,7064
2018-09-29T15:16:43.199Z,7352
2018-09-29T15:17:52.966Z,7320
2018-09-29T15:19:02.996Z,7288
2018-09-29T15:20:12.523Z,7356
2018-09-29T15:21:22.590Z,7176
2018-09-29T15:22:32.622Z,7092
2018-09-29T15:23:42.656Z,6508
2018-09-29T15:24:52.430Z,6868
2018-09-29T15:26:02.697Z,6572
2018-09-29T15:27:12.589Z,6068
2018-09-29T15:28:22.623Z,6064
2018-09-29T15:29:32.397Z,6664
2018-09-29T15:30:42.433Z,6068
2018-09-29T15:31:52.471Z,6288
2018-09-29T15:33:02.297Z,5256
2018-09-29T15:34:11.797Z,5324
2018-09-29T15:35:21.569Z,4184
2018-09-29T15:36:31.339Z,4740
2018-09-29T15:37:41.102Z,4848
2018-09-29T15:38:51.143Z,4476
2018-09-29T15:40:01.173Z,3772
2018-09-29T15:41:11.215Z,3244
2018-09-29T15:42:21.056Z,3068
2018-09-29T15:43:31.266Z,2796
2018-09-29T15:44:40.767Z,3120
2018-09-29T15:45:50.271Z,2976
2018-09-29T15:47:00.037Z,2820
2018-09-29T15:48:09.533Z,3968
2018-09-29T15:49:19.300Z,3832
2018-09-29T15:50:28.798Z,3428
2018-09-29T15:51:38.561Z,5284
2018-09-29T15:52:48.631Z,4648
2018-09-29T15:53:58.660Z,4188
2018-09-29T15:55:08.534Z,3424
2018-09-29T15:56:18.763Z,3376
2018-09-29T15:57:28.531Z,3200